createdAt,value
2023-02-25T00:04:10.124Z,17.75
2023-02-25T00:10:13.193Z,20.25
2023-02-25T00:16:15.591Z,31.02
2023-02-25T00:22:17.557Z,30.52
2023-02-25T00:28:19.508Z,29.20
2023-02-25T00:34:22.855Z,34.10
2023-02-25T00:40:24.673Z,23.98
2023-02-25T00:46:28.207Z,26.45
2023-02-25T00:52:30.109Z,32.55
2023-02-25T00:58:35.794Z,26.83
2023-02-25T01:04:38.344Z,24.40
2023-02-25T01:10:40.354Z,24.38
2023-02-25T01:16:42.812Z,29.52
2023-02-25T01:22:44.601Z,39.10
2023-02-25T01:28:46.373Z,25.85
2023-02-25T01:34:48.153Z,27.17
2023-02-25T01:40:58.336Z,29.55
2023-02-25T01:47:01.618Z,21.52
2023-02-25T01:53:06.188Z,17.55
2023-02-25T01:59:08.957Z,32.60
2023-02-25T02:05:12.215Z,21.23
2023-02-25T02:11:14.404Z,29.50
2023-02-25T02:17:24.795Z,29.48
2023-02-25T02:23:35.037Z,24.02
2023-02-25T02:29:47.840Z,23.05
2023-02-25T02:35:59.627Z,25.02
2023-02-25T02:42:28.214Z,27.15
2023-02-25T02:49:06.011Z,24.50
2023-02-25T02:55:29.987Z,17.73
2023-02-25T03:01:36.780Z,18.95
2023-02-25T03:07:45.280Z,19.40
2023-02-25T03:13:51.476Z,20.90
2023-02-25T03:20:04.231Z,17.35
2023-02-25T03:26:23.883Z,28.02
2023-02-25T03:32:32.861Z,23.05
2023-02-25T03:38:36.983Z,18.13
2023-02-25T03:44:55.106Z,19.60
2023-02-25T03:51:01.831Z,17.70
2023-02-25T03:57:05.233Z,21.33
2023-02-25T04:03:07.103Z,7.38
2023-02-25T04:09:08.926Z,15.00
2023-02-25T04:15:11.408Z,12.65
2023-02-25T04:21:42.692Z,16.98
2023-02-25T04:27:46.092Z,11.38
2023-02-25T04:33:50.062Z,13.15
2023-02-25T04:39:52.043Z,11.23
2023-02-25T04:45:55.246Z,12.85
2023-02-25T04:51:57.055Z,12.50
2023-02-25T04:57:58.895Z,11.43
2023-02-25T05:04:00.870Z,8.30
2023-02-25T05:10:02.762Z,15.02
2023-02-25T05:16:10.878Z,17.50
2023-02-25T05:22:12.797Z,13.98
2023-02-25T05:28:14.640Z,19.40
2023-02-25T05:34:16.949Z,16.38
2023-02-25T05:40:18.871Z,18.08
2023-02-25T05:46:20.858Z,13.35
2023-02-25T05:52:22.819Z,13.82
2023-02-25T05:58:25.013Z,14.52
2023-02-25T06:04:26.805Z,14.57
2023-02-25T06:10:28.667Z,10.98
2023-02-25T06:16:32.419Z,14.70
2023-02-25T06:22:34.474Z,10.10
2023-02-25T06:28:37.117Z,12.32
2023-02-25T06:34:39.436Z,11.68
2023-02-25T06:40:41.241Z,7.90
2023-02-25T06:46:44.463Z,8.63
2023-02-25T06:52:46.237Z,9.18
2023-02-25T06:58:48.276Z,8.05
2023-02-25T07:04:52.931Z,7.63
2023-02-25T07:10:54.681Z,10.30
2023-02-25T07:16:56.498Z,10.05
2023-02-25T07:22:58.340Z,8.90
2023-02-25T07:29:00.212Z,10.15
2023-02-25T07:35:02.494Z,6.97
2023-02-25T07:41:09.557Z,6.03
2023-02-25T07:47:11.310Z,7.97
2023-02-25T07:53:13.159Z,3.17
2023-02-25T07:59:14.966Z,4.15
2023-02-25T08:05:21.865Z,4.25
2023-02-25T08:11:25.689Z,5.47
2023-02-25T08:17:32.474Z,2.97
2023-02-25T08:23:34.289Z,7.27
2023-02-25T08:29:36.704Z,9.20
2023-02-25T08:35:41.253Z,4.50
2023-02-25T08:41:44.251Z,2.58
2023-02-25T08:47:46.034Z,3.25
2023-02-25T08:53:48.125Z,2.83
2023-02-25T08:59:49.985Z,4.18
2023-02-25T09:05:52.990Z,1.25
2023-02-25T09:11:55.439Z,2.45
2023-02-25T09:17:57.287Z,4.20
2023-02-25T09:23:59.835Z,1.73
2023-02-25T09:30:01.596Z,3.70
2023-02-25T09:36:09.005Z,1.35
2023-02-25T09:42:17.982Z,5.15
2023-02-25T09:48:26.635Z,4.65
2023-02-25T09:54:38.160Z,2.88
2023-02-25T10:01:01.856Z,6.78
2023-02-25T10:07:14.237Z,4.90
2023-02-25T10:13:36.156Z,3.42
2023-02-25T10:20:01.645Z,6.53
2023-02-25T10:26:13.225Z,13.60
2023-02-25T10:32:28.845Z,19.20
2023-02-25T10:38:30.654Z,5.63
2023-02-25T10:44:32.394Z,18.95
2023-02-25T10:50:44.928Z,3.67
2023-02-25T10:56:49.668Z,5.60
2023-02-25T11:02:52.154Z,5.70
2023-02-25T11:08:58.486Z,3.20
2023-02-25T11:15:19.554Z,7.47
2023-02-25T11:21:37.297Z,3.65
2023-02-25T11:27:41.917Z,4.82
2023-02-25T11:33:50.869Z,3.97
2023-02-25T11:39:54.595Z,34.17
2023-02-25T11:46:24.650Z,3.85
2023-02-25T11:52:55.865Z,6.80
2023-02-25T11:59:49.849Z,2.65
2023-02-25T12:06:05.461Z,5.55
2023-02-25T12:12:54.198Z,6.03
2023-02-25T12:19:12.619Z,2.40
2023-02-25T12:25:36.869Z,2.15
2023-02-25T12:32:04.078Z,2.25
2023-02-25T12:38:43.341Z,0.87
2023-02-25T12:44:57.409Z,1.98
2023-02-25T12:51:32.293Z,3.05
2023-02-25T12:57:40.103Z,4.32
2023-02-25T13:03:48.631Z,2.88
2023-02-25T13:10:09.324Z,18.73
2023-02-25T13:16:58.410Z,2.40
2023-02-25T13:23:23.016Z,6.75
2023-02-25T13:29:43.131Z,7.47
2023-02-25T13:35:55.974Z,4.68
2023-02-25T13:42:29.584Z,15.18
2023-02-25T13:49:02.484Z,8.88
2023-02-25T13:55:07.364Z,4.22
2023-02-25T14:01:37.643Z,7.00
2023-02-25T14:08:05.100Z,8.18
2023-02-25T14:14:48.335Z,9.70
2023-02-25T14:21:18.734Z,5.03
2023-02-25T14:27:47.549Z,13.73
2023-02-25T14:34:35.086Z,4.75
2023-02-25T14:41:21.759Z,4.43
2023-02-25T14:47:42.360Z,6.07
2023-02-25T14:54:05.153Z,5.75
2023-02-25T15:00:25.726Z,5.88
2023-02-25T15:07:01.135Z,3.60
2023-02-25T15:13:36.493Z,8.43
2023-02-25T15:19:47.216Z,7.90
2023-02-25T15:26:10.363Z,10.00
2023-02-25T15:32:25.798Z,4.63
2023-02-25T15:38:48.799Z,4.45
2023-02-25T15:44:50.879Z,6.72
2023-02-25T15:50:53.373Z,7.13
2023-02-25T15:57:03.089Z,7.38
2023-02-25T16:03:38.221Z,4.45
2023-02-25T16:09:49.803Z,3.75
2023-02-25T16:15:54.825Z,4.43
2023-02-25T16:22:23.539Z,3.03
2023-02-25T16:28:25.271Z,12.38
2023-02-25T16:34:36.169Z,4.32
2023-02-25T16:40:43.092Z,6.57
2023-02-25T16:46:51.440Z,5.90
2023-02-25T16:52:54.344Z,3.13
2023-02-25T16:59:09.423Z,8.85
2023-02-25T17:05:27.229Z,6.47
2023-02-25T17:11:29.190Z,9.20
2023-02-25T17:17:34.244Z,4.75
2023-02-25T17:23:41.831Z,11.20
2023-02-25T17:29:44.020Z,7.30
2023-02-25T17:35:47.962Z,6.55
2023-02-25T17:41:50.363Z,10.65
2023-02-25T17:47:52.424Z,15.75
2023-02-25T17:54:01.011Z,10.13
2023-02-25T18:00:21.909Z,10.90
2023-02-25T18:06:31.407Z,12.13
2023-02-25T18:12:38.745Z,7.22
2023-02-25T18:18:40.680Z,15.10
2023-02-25T18:24:53.173Z,7.88
2023-02-25T18:30:55.077Z,14.95
2023-02-25T18:36:56.941Z,8.18
2023-02-25T18:42:59.764Z,7.30
2023-02-25T18:49:01.509Z,6.95
2023-02-25T18:55:03.893Z,11.40
2023-02-25T19:01:05.815Z,4.35
2023-02-25T19:07:11.496Z,7.70
2023-02-25T19:13:30.515Z,6.93
2023-02-25T19:19:32.544Z,11.35
2023-02-25T19:25:36.118Z,6.13
2023-02-25T19:31:38.088Z,8.00
2023-02-25T19:37:41.092Z,7.32
2023-02-25T19:43:42.997Z,8.02
2023-02-25T19:49:44.882Z,6.00
2023-02-25T19:55:46.749Z,7.68
2023-02-25T20:01:49.626Z,9.88
2023-02-25T20:07:52.070Z,21.30
2023-02-25T20:13:53.890Z,31.30
2023-02-25T20:19:55.666Z,10.13
2023-02-25T20:26:08.996Z,12.90
2023-02-25T20:32:11.376Z,11.02
2023-02-25T20:38:27.016Z,11.15
2023-02-25T20:44:29.254Z,8.65
2023-02-25T20:50:31.259Z,12.15
2023-02-25T20:56:34.605Z,5.45
2023-02-25T21:02:36.431Z,9.40
2023-02-25T21:08:38.359Z,5.55
2023-02-25T21:14:40.142Z,7.97
2023-02-25T21:20:42.439Z,8.60
2023-02-25T21:26:45.725Z,10.10
2023-02-25T21:32:47.511Z,8.88
2023-02-25T21:38:49.309Z,6.15
2023-02-25T21:44:51.135Z,8.57
2023-02-25T21:50:53.067Z,10.07
2023-02-25T21:56:54.965Z,7.22
2023-02-25T22:02:56.753Z,6.03
2023-02-25T22:08:58.713Z,4.88
2023-02-25T22:15:01.937Z,6.50
2023-02-25T22:21:17.070Z,8.68
2023-02-25T22:27:18.850Z,7.80
2023-02-25T22:33:24.260Z,8.15
2023-02-25T22:39:26.064Z,9.60
2023-02-25T22:45:27.823Z,10.73
2023-02-25T22:51:34.642Z,6.40
2023-02-25T22:57:36.517Z,5.55
2023-02-25T23:03:38.572Z,7.38
2023-02-25T23:09:40.671Z,9.68
2023-02-25T23:15:47.399Z,11.55
2023-02-25T23:21:49.375Z,6.25
2023-02-25T23:27:51.159Z,4.55
2023-02-25T23:34:01.991Z,7.65
2023-02-25T23:40:04.380Z,6.57
2023-02-25T23:46:06.779Z,5.00
2023-02-25T23:52:08.659Z,7.38
2023-02-25T23:58:10.738Z,8.15
